Terminal Aerodrome Forecast
Issued by NWS Boise, ID

Home | Current Version | Previous Version | Text Only | Print | Product List | Glossary On
Versions: 1 2 3 4 5 6 7 8 9 10 11 12 13
000
FTUS45 KBOI 240520
TAFBNO
TAF
KBNO 240520Z 2406/2506 VRB06KT P6SM -SHRA OVC040
     FM240900 VRB06KT P6SM -SHRA OVC025
     FM241800 VRB06KT P6SM FEW100=

USA.gov is the U.S. government's official web portal to all federal, state and local government web resources and services.